sensor_id;sensor_type;location;lat;lon;timestamp;P1;durP1;ratioP1;P2;durP2;ratioP2
24277;SDS011;12394;42.692;23.314;2024-02-15T00:01:26;11.93;;;8.87;;
24277;SDS011;12394;42.692;23.314;2024-02-15T00:03:52;10.33;;;8.23;;
24277;SDS011;12394;42.692;23.314;2024-02-15T00:06:17;11.37;;;8.60;;
24277;SDS011;12394;42.692;23.314;2024-02-15T00:08:44;9.87;;;7.70;;
24277;SDS011;12394;42.692;23.314;2024-02-15T00:11:10;9.60;;;7.53;;
24277;SDS011;12394;42.692;23.314;2024-02-15T00:13:35;11.10;;;8.10;;
24277;SDS011;12394;42.692;23.314;2024-02-15T00:16:01;10.60;;;7.77;;
24277;SDS011;12394;42.692;23.314;2024-02-15T00:18:27;9.90;;;7.77;;
24277;SDS011;12394;42.692;23.314;2024-02-15T00:20:52;13.17;;;8.03;;
24277;SDS011;12394;42.692;23.314;2024-02-15T00:23:18;11.00;;;8.03;;
24277;SDS011;12394;42.692;23.314;2024-02-15T00:25:44;8.53;;;7.03;;
24277;SDS011;12394;42.692;23.314;2024-02-15T00:28:10;10.63;;;7.40;;
24277;SDS011;12394;42.692;23.314;2024-02-15T00:30:36;11.93;;;8.50;;
24277;SDS011;12394;42.692;23.314;2024-02-15T00:33:02;11.27;;;7.03;;
24277;SDS011;12394;42.692;23.314;2024-02-15T00:35:28;11.13;;;7.30;;
24277;SDS011;12394;42.692;23.314;2024-02-15T00:37:54;10.97;;;7.67;;
24277;SDS011;12394;42.692;23.314;2024-02-15T00:40:19;12.47;;;6.93;;
24277;SDS011;12394;42.692;23.314;2024-02-15T00:42:46;11.00;;;8.30;;
24277;SDS011;12394;42.692;23.314;2024-02-15T00:45:12;10.37;;;7.70;;
24277;SDS011;12394;42.692;23.314;2024-02-15T00:47:37;9.40;;;7.17;;
24277;SDS011;12394;42.692;23.314;2024-02-15T00:50:03;9.47;;;7.60;;
24277;SDS011;12394;42.692;23.314;2024-02-15T00:52:29;10.53;;;7.67;;
24277;SDS011;12394;42.692;23.314;2024-02-15T00:54:56;8.63;;;7.37;;
24277;SDS011;12394;42.692;23.314;2024-02-15T00:57:22;9.80;;;7.83;;
24277;SDS011;12394;42.692;23.314;2024-02-15T00:59:47;9.37;;;6.93;;
24277;SDS011;12394;42.692;23.314;2024-02-15T01:02:13;12.50;;;7.87;;
24277;SDS011;12394;42.692;23.314;2024-02-15T01:04:39;12.03;;;7.13;;
24277;SDS011;12394;42.692;23.314;2024-02-15T01:07:04;9.30;;;7.00;;
24277;SDS011;12394;42.692;23.314;2024-02-15T01:09:30;11.10;;;8.00;;
24277;SDS011;12394;42.692;23.314;2024-02-15T01:11:55;9.90;;;7.60;;
24277;SDS011;12394;42.692;23.314;2024-02-15T01:14:21;11.37;;;7.53;;
24277;SDS011;12394;42.692;23.314;2024-02-15T01:16:47;11.73;;;9.13;;
24277;SDS011;12394;42.692;23.314;2024-02-15T01:19:12;9.93;;;7.03;;
24277;SDS011;12394;42.692;23.314;2024-02-15T01:21:38;14.23;;;8.43;;
24277;SDS011;12394;42.692;23.314;2024-02-15T01:24:04;8.37;;;7.00;;
24277;SDS011;12394;42.692;23.314;2024-02-15T01:26:31;9.63;;;7.43;;
24277;SDS011;12394;42.692;23.314;2024-02-15T01:28:57;9.43;;;7.23;;
24277;SDS011;12394;42.692;23.314;2024-02-15T01:31:23;11.30;;;7.73;;
24277;SDS011;12394;42.692;23.314;2024-02-15T01:33:48;10.67;;;7.40;;
24277;SDS011;12394;42.692;23.314;2024-02-15T01:36:17;8.97;;;7.33;;
24277;SDS011;12394;42.692;23.314;2024-02-15T01:38:43;10.20;;;7.10;;
24277;SDS011;12394;42.692;23.314;2024-02-15T01:41:10;10.50;;;7.63;;
24277;SDS011;12394;42.692;23.314;2024-02-15T01:43:35;10.17;;;7.13;;
24277;SDS011;12394;42.692;23.314;2024-02-15T01:46:02;9.67;;;7.57;;
24277;SDS011;12394;42.692;23.314;2024-02-15T01:48:34;9.90;;;7.60;;
24277;SDS011;12394;42.692;23.314;2024-02-15T01:51:04;10.73;;;7.60;;
24277;SDS011;12394;42.692;23.314;2024-02-15T01:53:32;10.70;;;7.47;;
24277;SDS011;12394;42.692;23.314;2024-02-15T01:55:58;13.27;;;7.53;;
24277;SDS011;12394;42.692;23.314;2024-02-15T01:58:25;8.50;;;7.50;;
24277;SDS011;12394;42.692;23.314;2024-02-15T02:00:52;12.53;;;8.10;;
24277;SDS011;12394;42.692;23.314;2024-02-15T02:03:18;10.57;;;7.67;;
24277;SDS011;12394;42.692;23.314;2024-02-15T02:05:46;10.67;;;7.67;;
24277;SDS011;12394;42.692;23.314;2024-02-15T02:08:12;11.73;;;8.60;;
24277;SDS011;12394;42.692;23.314;2024-02-15T02:10:38;12.07;;;8.03;;
24277;SDS011;12394;42.692;23.314;2024-02-15T02:13:04;11.27;;;7.90;;
24277;SDS011;12394;42.692;23.314;2024-02-15T02:15:33;9.60;;;7.93;;
24277;SDS011;12394;42.692;23.314;2024-02-15T02:18:02;8.70;;;7.80;;
24277;SDS011;12394;42.692;23.314;2024-02-15T02:20:30;13.37;;;7.87;;
24277;SDS011;12394;42.692;23.314;2024-02-15T02:23:02;14.00;;;8.07;;
24277;SDS011;12394;42.692;23.314;2024-02-15T02:25:39;10.20;;;9.10;;
24277;SDS011;12394;42.692;23.314;2024-02-15T02:28:07;12.53;;;8.40;;
24277;SDS011;12394;42.692;23.314;2024-02-15T02:30:33;11.03;;;8.27;;
24277;SDS011;12394;42.692;23.314;2024-02-15T02:33:00;11.80;;;8.77;;
24277;SDS011;12394;42.692;23.314;2024-02-15T02:35:26;13.57;;;8.73;;
24277;SDS011;12394;42.692;23.314;2024-02-15T02:37:53;13.00;;;8.67;;
24277;SDS011;12394;42.692;23.314;2024-02-15T02:40:18;11.70;;;8.97;;
24277;SDS011;12394;42.692;23.314;2024-02-15T02:42:53;11.10;;;8.27;;
24277;SDS011;12394;42.692;23.314;2024-02-15T02:45:26;9.17;;;7.13;;
24277;SDS011;12394;42.692;23.314;2024-02-15T02:47:52;13.83;;;9.20;;
24277;SDS011;12394;42.692;23.314;2024-02-15T02:50:17;12.90;;;7.87;;
24277;SDS011;12394;42.692;23.314;2024-02-15T02:52:44;11.33;;;8.67;;
24277;SDS011;12394;42.692;23.314;2024-02-15T02:55:10;12.30;;;8.57;;
24277;SDS011;12394;42.692;23.314;2024-02-15T02:57:36;13.03;;;8.43;;
24277;SDS011;12394;42.692;23.314;2024-02-15T03:02:29;11.00;;;8.87;;
24277;SDS011;12394;42.692;23.314;2024-02-15T03:04:54;11.93;;;9.10;;
24277;SDS011;12394;42.692;23.314;2024-02-15T03:07:20;14.70;;;9.57;;
24277;SDS011;12394;42.692;23.314;2024-02-15T03:09:48;14.90;;;9.77;;
24277;SDS011;12394;42.692;23.314;2024-02-15T03:12:13;12.50;;;8.97;;
24277;SDS011;12394;42.692;23.314;2024-02-15T03:14:39;13.03;;;8.60;;
24277;SDS011;12394;42.692;23.314;2024-02-15T03:17:06;13.63;;;9.10;;
24277;SDS011;12394;42.692;23.314;2024-02-15T03:19:31;14.00;;;9.67;;
24277;SDS011;12394;42.692;23.314;2024-02-15T03:21:57;20.07;;;10.33;;
24277;SDS011;12394;42.692;23.314;2024-02-15T03:24:22;13.33;;;9.87;;
24277;SDS011;12394;42.692;23.314;2024-02-15T03:26:48;11.53;;;9.57;;
24277;SDS011;12394;42.692;23.314;2024-02-15T03:29:13;13.00;;;9.97;;
24277;SDS011;12394;42.692;23.314;2024-02-15T03:31:39;13.80;;;9.50;;
24277;SDS011;12394;42.692;23.314;2024-02-15T03:34:04;14.30;;;9.77;;
24277;SDS011;12394;42.692;23.314;2024-02-15T03:36:30;17.43;;;10.27;;
24277;SDS011;12394;42.692;23.314;2024-02-15T03:38:56;14.87;;;9.07;;
24277;SDS011;12394;42.692;23.314;2024-02-15T03:41:22;12.93;;;9.37;;
24277;SDS011;12394;42.692;23.314;2024-02-15T03:43:48;14.27;;;10.40;;
24277;SDS011;12394;42.692;23.314;2024-02-15T03:46:14;14.10;;;9.63;;
24277;SDS011;12394;42.692;23.314;2024-02-15T03:48:43;13.70;;;9.83;;
24277;SDS011;12394;42.692;23.314;2024-02-15T03:51:09;14.83;;;9.93;;
24277;SDS011;12394;42.692;23.314;2024-02-15T03:53:35;12.53;;;9.67;;
24277;SDS011;12394;42.692;23.314;2024-02-15T03:56:05;15.13;;;10.73;;
24277;SDS011;12394;42.692;23.314;2024-02-15T03:58:31;14.27;;;10.33;;
24277;SDS011;12394;42.692;23.314;2024-02-15T04:00:58;17.07;;;10.17;;
24277;SDS011;12394;42.692;23.314;2024-02-15T04:03:24;15.10;;;9.70;;
24277;SDS011;12394;42.692;23.314;2024-02-15T04:05:49;13.83;;;9.47;;
24277;SDS011;12394;42.692;23.314;2024-02-15T04:08:15;12.80;;;9.50;;
24277;SDS011;12394;42.692;23.314;2024-02-15T04:10:41;13.23;;;9.70;;
24277;SDS011;12394;42.692;23.314;2024-02-15T04:13:07;15.27;;;10.20;;
24277;SDS011;12394;42.692;23.314;2024-02-15T04:15:32;15.73;;;10.07;;
24277;SDS011;12394;42.692;23.314;2024-02-15T04:17:58;13.80;;;9.63;;
24277;SDS011;12394;42.692;23.314;2024-02-15T04:20:25;13.67;;;10.73;;
24277;SDS011;12394;42.692;23.314;2024-02-15T04:22:51;18.90;;;10.10;;
24277;SDS011;12394;42.692;23.314;2024-02-15T04:25:18;17.23;;;9.73;;
24277;SDS011;12394;42.692;23.314;2024-02-15T04:27:48;11.77;;;9.43;;
24277;SDS011;12394;42.692;23.314;2024-02-15T04:30:14;13.97;;;10.60;;
24277;SDS011;12394;42.692;23.314;2024-02-15T04:32:43;13.87;;;9.67;;
24277;SDS011;12394;42.692;23.314;2024-02-15T04:35:08;15.63;;;9.57;;
24277;SDS011;12394;42.692;23.314;2024-02-15T04:37:35;14.93;;;10.50;;
24277;SDS011;12394;42.692;23.314;2024-02-15T04:40:02;20.43;;;10.03;;
24277;SDS011;12394;42.692;23.314;2024-02-15T04:42:34;13.10;;;9.60;;
24277;SDS011;12394;42.692;23.314;2024-02-15T04:45:04;14.57;;;9.60;;
24277;SDS011;12394;42.692;23.314;2024-02-15T04:47:33;15.37;;;8.63;;
24277;SDS011;12394;42.692;23.314;2024-02-15T04:49:59;14.40;;;9.53;;
24277;SDS011;12394;42.692;23.314;2024-02-15T04:52:25;14.17;;;10.20;;
24277;SDS011;12394;42.692;23.314;2024-02-15T04:54:50;14.87;;;10.33;;
24277;SDS011;12394;42.692;23.314;2024-02-15T04:57:16;15.10;;;10.23;;
24277;SDS011;12394;42.692;23.314;2024-02-15T04:59:42;15.67;;;10.43;;
24277;SDS011;12394;42.692;23.314;2024-02-15T05:02:12;14.60;;;9.13;;
24277;SDS011;12394;42.692;23.314;2024-02-15T05:04:38;14.60;;;9.20;;
24277;SDS011;12394;42.692;23.314;2024-02-15T05:07:03;19.00;;;11.50;;
24277;SDS011;12394;42.692;23.314;2024-02-15T05:09:29;14.83;;;9.83;;
24277;SDS011;12394;42.692;23.314;2024-02-15T05:11:56;15.77;;;10.30;;
24277;SDS011;12394;42.692;23.314;2024-02-15T05:14:24;17.57;;;11.00;;
24277;SDS011;12394;42.692;23.314;2024-02-15T05:16:51;15.63;;;10.50;;
24277;SDS011;12394;42.692;23.314;2024-02-15T05:19:17;14.40;;;10.97;;
24277;SDS011;12394;42.692;23.314;2024-02-15T05:21:43;16.27;;;10.53;;
24277;SDS011;12394;42.692;23.314;2024-02-15T05:24:10;16.67;;;11.37;;
24277;SDS011;12394;42.692;23.314;2024-02-15T05:26:39;15.30;;;10.17;;
24277;SDS011;12394;42.692;23.314;2024-02-15T05:29:05;15.27;;;10.80;;
24277;SDS011;12394;42.692;23.314;2024-02-15T05:31:30;15.90;;;10.10;;
24277;SDS011;12394;42.692;23.314;2024-02-15T05:33:55;13.87;;;10.00;;
24277;SDS011;12394;42.692;23.314;2024-02-15T05:36:23;12.17;;;9.73;;
24277;SDS011;12394;42.692;23.314;2024-02-15T05:38:51;17.10;;;10.80;;
24277;SDS011;12394;42.692;23.314;2024-02-15T05:41:18;16.93;;;10.70;;
24277;SDS011;12394;42.692;23.314;2024-02-15T05:43:45;14.67;;;10.57;;
24277;SDS011;12394;42.692;23.314;2024-02-15T05:46:13;29.53;;;15.23;;
24277;SDS011;12394;42.692;23.314;2024-02-15T05:48:39;14.97;;;10.33;;
24277;SDS011;12394;42.692;23.314;2024-02-15T05:51:05;15.37;;;11.00;;
24277;SDS011;12394;42.692;23.314;2024-02-15T05:53:32;20.83;;;11.40;;
24277;SDS011;12394;42.692;23.314;2024-02-15T05:56:07;18.03;;;10.40;;
24277;SDS011;12394;42.692;23.314;2024-02-15T05:58:34;21.80;;;10.07;;
24277;SDS011;12394;42.692;23.314;2024-02-15T06:01:01;15.27;;;10.17;;
24277;SDS011;12394;42.692;23.314;2024-02-15T06:03:30;16.97;;;10.47;;
24277;SDS011;12394;42.692;23.314;2024-02-15T06:06:01;21.97;;;14.47;;
24277;SDS011;12394;42.692;23.314;2024-02-15T06:08:31;17.27;;;10.90;;
24277;SDS011;12394;42.692;23.314;2024-02-15T06:10:57;24.10;;;10.93;;
24277;SDS011;12394;42.692;23.314;2024-02-15T06:13:23;14.33;;;10.23;;
24277;SDS011;12394;42.692;23.314;2024-02-15T06:15:50;18.37;;;10.97;;
24277;SDS011;12394;42.692;23.314;2024-02-15T06:18:22;15.83;;;9.80;;
24277;SDS011;12394;42.692;23.314;2024-02-15T06:20:50;12.37;;;9.43;;
24277;SDS011;12394;42.692;23.314;2024-02-15T06:23:16;17.57;;;10.47;;
24277;SDS011;12394;42.692;23.314;2024-02-15T06:25:42;15.63;;;10.70;;
24277;SDS011;12394;42.692;23.314;2024-02-15T06:28:08;14.50;;;9.50;;
24277;SDS011;12394;42.692;23.314;2024-02-15T06:30:53;21.53;;;10.87;;
24277;SDS011;12394;42.692;23.314;2024-02-15T06:33:37;14.20;;;9.23;;
24277;SDS011;12394;42.692;23.314;2024-02-15T06:36:21;12.03;;;9.30;;
24277;SDS011;12394;42.692;23.314;2024-02-15T06:39:04;15.47;;;9.23;;
24277;SDS011;12394;42.692;23.314;2024-02-15T06:41:48;16.37;;;9.57;;
24277;SDS011;12394;42.692;23.314;2024-02-15T06:44:14;13.93;;;10.50;;
24277;SDS011;12394;42.692;23.314;2024-02-15T06:46:39;20.03;;;11.10;;
24277;SDS011;12394;42.692;23.314;2024-02-15T06:49:06;16.03;;;10.87;;
24277;SDS011;12394;42.692;23.314;2024-02-15T06:51:31;15.10;;;10.33;;
24277;SDS011;12394;42.692;23.314;2024-02-15T06:53:57;13.77;;;9.80;;
24277;SDS011;12394;42.692;23.314;2024-02-15T06:56:22;13.90;;;9.73;;
24277;SDS011;12394;42.692;23.314;2024-02-15T06:58:49;18.07;;;10.03;;
24277;SDS011;12394;42.692;23.314;2024-02-15T07:01:15;14.20;;;10.90;;
24277;SDS011;12394;42.692;23.314;2024-02-15T07:03:43;15.87;;;11.27;;
24277;SDS011;12394;42.692;23.314;2024-02-15T07:06:15;17.40;;;9.87;;
24277;SDS011;12394;42.692;23.314;2024-02-15T07:08:42;18.43;;;9.83;;
24277;SDS011;12394;42.692;23.314;2024-02-15T07:11:07;19.67;;;11.13;;
24277;SDS011;12394;42.692;23.314;2024-02-15T07:13:35;13.50;;;9.83;;
24277;SDS011;12394;42.692;23.314;2024-02-15T07:16:02;12.80;;;8.13;;
24277;SDS011;12394;42.692;23.314;2024-02-15T07:18:31;14.57;;;9.47;;
24277;SDS011;12394;42.692;23.314;2024-02-15T07:20:56;15.03;;;10.27;;
24277;SDS011;12394;42.692;23.314;2024-02-15T07:23:26;16.17;;;9.40;;
24277;SDS011;12394;42.692;23.314;2024-02-15T07:25:52;12.43;;;9.27;;
24277;SDS011;12394;42.692;23.314;2024-02-15T07:28:19;14.47;;;8.50;;
24277;SDS011;12394;42.692;23.314;2024-02-15T07:30:46;15.00;;;8.60;;
24277;SDS011;12394;42.692;23.314;2024-02-15T07:33:14;11.53;;;8.97;;
24277;SDS011;12394;42.692;23.314;2024-02-15T07:35:43;12.47;;;8.67;;
24277;SDS011;12394;42.692;23.314;2024-02-15T07:38:11;14.63;;;9.57;;
24277;SDS011;12394;42.692;23.314;2024-02-15T07:40:36;15.87;;;9.57;;
24277;SDS011;12394;42.692;23.314;2024-02-15T07:43:04;11.47;;;9.30;;
24277;SDS011;12394;42.692;23.314;2024-02-15T07:45:31;11.53;;;8.70;;
24277;SDS011;12394;42.692;23.314;2024-02-15T07:48:00;13.73;;;9.63;;
24277;SDS011;12394;42.692;23.314;2024-02-15T07:50:26;10.30;;;8.97;;
24277;SDS011;12394;42.692;23.314;2024-02-15T07:52:51;15.10;;;9.10;;
24277;SDS011;12394;42.692;23.314;2024-02-15T07:55:18;13.87;;;8.83;;
24277;SDS011;12394;42.692;23.314;2024-02-15T07:57:44;14.13;;;8.67;;
24277;SDS011;12394;42.692;23.314;2024-02-15T08:00:11;14.33;;;8.83;;
24277;SDS011;12394;42.692;23.314;2024-02-15T08:02:38;11.13;;;9.43;;
24277;SDS011;12394;42.692;23.314;2024-02-15T08:05:07;11.40;;;8.67;;
24277;SDS011;12394;42.692;23.314;2024-02-15T08:07:36;10.90;;;8.90;;
24277;SDS011;12394;42.692;23.314;2024-02-15T08:10:04;10.47;;;8.53;;
24277;SDS011;12394;42.692;23.314;2024-02-15T08:12:33;12.47;;;8.40;;
24277;SDS011;12394;42.692;23.314;2024-02-15T08:14:58;13.43;;;8.80;;
24277;SDS011;12394;42.692;23.314;2024-02-15T08:17:23;17.43;;;8.87;;
24277;SDS011;12394;42.692;23.314;2024-02-15T08:19:51;10.07;;;8.70;;
24277;SDS011;12394;42.692;23.314;2024-02-15T08:22:16;10.07;;;8.27;;
24277;SDS011;12394;42.692;23.314;2024-02-15T08:24:42;12.73;;;9.03;;
24277;SDS011;12394;42.692;23.314;2024-02-15T08:27:09;10.27;;;8.90;;
24277;SDS011;12394;42.692;23.314;2024-02-15T08:29:35;13.37;;;8.87;;
24277;SDS011;12394;42.692;23.314;2024-02-15T08:32:01;9.93;;;8.63;;
24277;SDS011;12394;42.692;23.314;2024-02-15T08:34:26;10.80;;;8.67;;
24277;SDS011;12394;42.692;23.314;2024-02-15T08:36:53;17.17;;;10.10;;
24277;SDS011;12394;42.692;23.314;2024-02-15T08:39:18;12.67;;;8.87;;
24277;SDS011;12394;42.692;23.314;2024-02-15T08:41:44;10.00;;;8.87;;
24277;SDS011;12394;42.692;23.314;2024-02-15T08:44:09;11.40;;;9.00;;
24277;SDS011;12394;42.692;23.314;2024-02-15T08:46:39;13.57;;;9.77;;
24277;SDS011;12394;42.692;23.314;2024-02-15T08:49:05;9.80;;;8.07;;
24277;SDS011;12394;42.692;23.314;2024-02-15T08:51:30;11.83;;;8.50;;
24277;SDS011;12394;42.692;23.314;2024-02-15T08:53:57;12.53;;;8.70;;
24277;SDS011;12394;42.692;23.314;2024-02-15T08:56:25;11.23;;;9.10;;
24277;SDS011;12394;42.692;23.314;2024-02-15T08:58:50;18.97;;;8.63;;
24277;SDS011;12394;42.692;23.314;2024-02-15T09:01:16;11.00;;;7.70;;
24277;SDS011;12394;42.692;23.314;2024-02-15T09:03:41;11.03;;;7.47;;
24277;SDS011;12394;42.692;23.314;2024-02-15T09:06:10;10.07;;;8.10;;
24277;SDS011;12394;42.692;23.314;2024-02-15T09:08:35;14.60;;;8.20;;
24277;SDS011;12394;42.692;23.314;2024-02-15T09:11:01;10.60;;;8.10;;
24277;SDS011;12394;42.692;23.314;2024-02-15T09:13:27;10.97;;;8.47;;
24277;SDS011;12394;42.692;23.314;2024-02-15T09:15:52;10.67;;;9.63;;
24277;SDS011;12394;42.692;23.314;2024-02-15T09:18:18;9.93;;;8.30;;
24277;SDS011;12394;42.692;23.314;2024-02-15T09:20:43;13.37;;;10.23;;
24277;SDS011;12394;42.692;23.314;2024-02-15T09:23:13;10.50;;;8.43;;
24277;SDS011;12394;42.692;23.314;2024-02-15T09:25:39;10.00;;;8.07;;
24277;SDS011;12394;42.692;23.314;2024-02-15T09:28:05;13.23;;;8.80;;
24277;SDS011;12394;42.692;23.314;2024-02-15T09:30:31;10.70;;;8.20;;
24277;SDS011;12394;42.692;23.314;2024-02-15T09:32:57;12.83;;;7.50;;
24277;SDS011;12394;42.692;23.314;2024-02-15T09:35:22;11.13;;;7.43;;
24277;SDS011;12394;42.692;23.314;2024-02-15T09:37:48;9.20;;;7.37;;
24277;SDS011;12394;42.692;23.314;2024-02-15T09:40:14;8.23;;;6.83;;
24277;SDS011;12394;42.692;23.314;2024-02-15T09:42:42;7.67;;;6.87;;
24277;SDS011;12394;42.692;23.314;2024-02-15T09:45:10;13.50;;;7.03;;
24277;SDS011;12394;42.692;23.314;2024-02-15T09:47:40;7.93;;;6.80;;
24277;SDS011;12394;42.692;23.314;2024-02-15T09:52:32;13.83;;;6.90;;
24277;SDS011;12394;42.692;23.314;2024-02-15T09:55:02;11.47;;;7.83;;
24277;SDS011;12394;42.692;23.314;2024-02-15T09:57:29;9.07;;;6.83;;
24277;SDS011;12394;42.692;23.314;2024-02-15T09:59:57;8.30;;;7.30;;
24277;SDS011;12394;42.692;23.314;2024-02-15T10:02:24;13.10;;;7.90;;
24277;SDS011;12394;42.692;23.314;2024-02-15T10:04:51;9.30;;;6.87;;
24277;SDS011;12394;42.692;23.314;2024-02-15T10:07:18;8.63;;;6.57;;
24277;SDS011;12394;42.692;23.314;2024-02-15T10:09:44;8.43;;;7.43;;
24277;SDS011;12394;42.692;23.314;2024-02-15T10:12:09;11.03;;;7.77;;
24277;SDS011;12394;42.692;23.314;2024-02-15T10:14:35;13.10;;;8.07;;
24277;SDS011;12394;42.692;23.314;2024-02-15T10:17:07;11.77;;;7.23;;
24277;SDS011;12394;42.692;23.314;2024-02-15T10:19:37;8.57;;;6.83;;
24277;SDS011;12394;42.692;23.314;2024-02-15T10:22:07;9.30;;;6.60;;
24277;SDS011;12394;42.692;23.314;2024-02-15T10:24:33;12.23;;;6.83;;
24277;SDS011;12394;42.692;23.314;2024-02-15T10:27:01;10.57;;;6.53;;
24277;SDS011;12394;42.692;23.314;2024-02-15T10:29:31;9.37;;;6.33;;
24277;SDS011;12394;42.692;23.314;2024-02-15T10:31:59;7.93;;;6.27;;
24277;SDS011;12394;42.692;23.314;2024-02-15T10:34:25;8.47;;;6.33;;
24277;SDS011;12394;42.692;23.314;2024-02-15T10:36:55;8.50;;;6.23;;
24277;SDS011;12394;42.692;23.314;2024-02-15T10:39:36;8.17;;;6.47;;
24277;SDS011;12394;42.692;23.314;2024-02-15T10:42:02;8.33;;;7.00;;
24277;SDS011;12394;42.692;23.314;2024-02-15T10:44:31;11.70;;;7.00;;
24277;SDS011;12394;42.692;23.314;2024-02-15T10:46:59;7.97;;;6.17;;
24277;SDS011;12394;42.692;23.314;2024-02-15T10:49:26;6.87;;;5.90;;
24277;SDS011;12394;42.692;23.314;2024-02-15T10:51:56;7.53;;;6.20;;
24277;SDS011;12394;42.692;23.314;2024-02-15T10:57:12;7.73;;;6.30;;
24277;SDS011;12394;42.692;23.314;2024-02-15T10:59:43;6.87;;;5.77;;
24277;SDS011;12394;42.692;23.314;2024-02-15T11:05:11;9.97;;;6.20;;
24277;SDS011;12394;42.692;23.314;2024-02-15T11:07:39;8.97;;;5.77;;
24277;SDS011;12394;42.692;23.314;2024-02-15T11:10:08;8.50;;;5.90;;
24277;SDS011;12394;42.692;23.314;2024-02-15T11:12:36;7.93;;;5.63;;
24277;SDS011;12394;42.692;23.314;2024-02-15T11:15:02;13.23;;;6.53;;
24277;SDS011;12394;42.692;23.314;2024-02-15T11:20:09;6.63;;;5.90;;
24277;SDS011;12394;42.692;23.314;2024-02-15T11:22:36;7.63;;;5.83;;
24277;SDS011;12394;42.692;23.314;2024-02-15T11:25:04;7.07;;;5.70;;
24277;SDS011;12394;42.692;23.314;2024-02-15T11:27:40;8.17;;;5.80;;
24277;SDS011;12394;42.692;23.314;2024-02-15T11:30:06;8.07;;;6.27;;
24277;SDS011;12394;42.692;23.314;2024-02-15T11:32:48;11.47;;;5.83;;
24277;SDS011;12394;42.692;23.314;2024-02-15T11:40:19;8.03;;;5.63;;
24277;SDS011;12394;42.692;23.314;2024-02-15T11:42:55;7.67;;;5.90;;
24277;SDS011;12394;42.692;23.314;2024-02-15T11:45:25;8.07;;;5.63;;
24277;SDS011;12394;42.692;23.314;2024-02-15T11:47:54;9.23;;;6.10;;
24277;SDS011;12394;42.692;23.314;2024-02-15T11:50:21;7.07;;;5.73;;
24277;SDS011;12394;42.692;23.314;2024-02-15T11:52:47;9.97;;;6.20;;
24277;SDS011;12394;42.692;23.314;2024-02-15T11:55:14;10.20;;;6.03;;
24277;SDS011;12394;42.692;23.314;2024-02-15T11:57:53;7.93;;;6.23;;
24277;SDS011;12394;42.692;23.314;2024-02-15T12:00:26;8.80;;;6.37;;
24277;SDS011;12394;42.692;23.314;2024-02-15T12:03:10;12.40;;;6.67;;
24277;SDS011;12394;42.692;23.314;2024-02-15T12:05:57;10.57;;;7.27;;
24277;SDS011;12394;42.692;23.314;2024-02-15T12:08:43;12.57;;;6.80;;
24277;SDS011;12394;42.692;23.314;2024-02-15T12:11:31;6.87;;;5.33;;
24277;SDS011;12394;42.692;23.314;2024-02-15T12:17:37;8.93;;;5.90;;
24277;SDS011;12394;42.692;23.314;2024-02-15T12:20:23;10.07;;;5.80;;
24277;SDS011;12394;42.692;23.314;2024-02-15T12:22:49;21.00;;;13.93;;
24277;SDS011;12394;42.692;23.314;2024-02-15T12:25:17;10.47;;;6.90;;
24277;SDS011;12394;42.692;23.314;2024-02-15T12:27:46;7.90;;;6.50;;
24277;SDS011;12394;42.692;23.314;2024-02-15T12:30:20;8.27;;;6.63;;
24277;SDS011;12394;42.692;23.314;2024-02-15T12:32:47;11.77;;;6.87;;
24277;SDS011;12394;42.692;23.314;2024-02-15T12:35:16;9.17;;;6.30;;
24277;SDS011;12394;42.692;23.314;2024-02-15T12:40:29;9.13;;;6.03;;
24277;SDS011;12394;42.692;23.314;2024-02-15T12:42:55;7.47;;;6.20;;
24277;SDS011;12394;42.692;23.314;2024-02-15T12:45:21;7.40;;;6.10;;
24277;SDS011;12394;42.692;23.314;2024-02-15T12:47:50;6.13;;;5.43;;
24277;SDS011;12394;42.692;23.314;2024-02-15T12:50:19;7.47;;;5.23;;
24277;SDS011;12394;42.692;23.314;2024-02-15T12:52:47;11.20;;;6.50;;
24277;SDS011;12394;42.692;23.314;2024-02-15T12:57:47;7.10;;;5.00;;
24277;SDS011;12394;42.692;23.314;2024-02-15T13:00:20;8.27;;;5.37;;
24277;SDS011;12394;42.692;23.314;2024-02-15T13:02:47;9.07;;;6.03;;
24277;SDS011;12394;42.692;23.314;2024-02-15T13:05:14;11.13;;;6.27;;
24277;SDS011;12394;42.692;23.314;2024-02-15T13:07:43;11.60;;;6.07;;
24277;SDS011;12394;42.692;23.314;2024-02-15T13:10:12;8.73;;;5.77;;
24277;SDS011;12394;42.692;23.314;2024-02-15T13:12:40;9.20;;;6.00;;
24277;SDS011;12394;42.692;23.314;2024-02-15T13:15:06;9.83;;;5.83;;
24277;SDS011;12394;42.692;23.314;2024-02-15T13:17:38;10.07;;;5.67;;
24277;SDS011;12394;42.692;23.314;2024-02-15T13:20:10;9.40;;;5.80;;
24277;SDS011;12394;42.692;23.314;2024-02-15T13:22:38;8.17;;;5.83;;
24277;SDS011;12394;42.692;23.314;2024-02-15T13:25:06;8.77;;;6.00;;
24277;SDS011;12394;42.692;23.314;2024-02-15T13:27:34;8.20;;;5.63;;
24277;SDS011;12394;42.692;23.314;2024-02-15T13:30:06;7.90;;;5.80;;
24277;SDS011;12394;42.692;23.314;2024-02-15T13:32:37;7.57;;;5.77;;
24277;SDS011;12394;42.692;23.314;2024-02-15T13:35:07;6.67;;;5.67;;
24277;SDS011;12394;42.692;23.314;2024-02-15T13:37:41;7.97;;;6.13;;
24277;SDS011;12394;42.692;23.314;2024-02-15T13:40:13;9.57;;;5.47;;
24277;SDS011;12394;42.692;23.314;2024-02-15T13:42:43;7.57;;;5.57;;
24277;SDS011;12394;42.692;23.314;2024-02-15T13:45:16;6.43;;;5.30;;
24277;SDS011;12394;42.692;23.314;2024-02-15T13:47:45;9.57;;;5.93;;
24277;SDS011;12394;42.692;23.314;2024-02-15T13:50:12;11.50;;;6.00;;
24277;SDS011;12394;42.692;23.314;2024-02-15T13:52:47;7.57;;;6.27;;
24277;SDS011;12394;42.692;23.314;2024-02-15T13:55:19;7.77;;;5.27;;
24277;SDS011;12394;42.692;23.314;2024-02-15T13:57:50;10.00;;;6.67;;
24277;SDS011;12394;42.692;23.314;2024-02-15T14:00:16;10.77;;;5.80;;
24277;SDS011;12394;42.692;23.314;2024-02-15T14:02:48;8.17;;;5.73;;
24277;SDS011;12394;42.692;23.314;2024-02-15T14:05:18;10.57;;;5.97;;
24277;SDS011;12394;42.692;23.314;2024-02-15T14:07:48;7.03;;;5.53;;
24277;SDS011;12394;42.692;23.314;2024-02-15T14:10:21;7.90;;;5.70;;
24277;SDS011;12394;42.692;23.314;2024-02-15T14:12:51;10.63;;;6.20;;
24277;SDS011;12394;42.692;23.314;2024-02-15T14:15:21;15.93;;;6.57;;
24277;SDS011;12394;42.692;23.314;2024-02-15T14:17:47;7.17;;;5.20;;
24277;SDS011;12394;42.692;23.314;2024-02-15T14:20:13;8.30;;;5.73;;
24277;SDS011;12394;42.692;23.314;2024-02-15T14:22:43;9.00;;;5.80;;
24277;SDS011;12394;42.692;23.314;2024-02-15T14:25:10;7.43;;;5.80;;
24277;SDS011;12394;42.692;23.314;2024-02-15T14:27:40;6.30;;;4.60;;
24277;SDS011;12394;42.692;23.314;2024-02-15T14:30:06;8.27;;;5.40;;
24277;SDS011;12394;42.692;23.314;2024-02-15T14:32:53;9.60;;;6.80;;
24277;SDS011;12394;42.692;23.314;2024-02-15T14:35:25;9.83;;;6.47;;
24277;SDS011;12394;42.692;23.314;2024-02-15T14:37:55;10.63;;;6.37;;
24277;SDS011;12394;42.692;23.314;2024-02-15T14:40:23;8.93;;;6.37;;
24277;SDS011;12394;42.692;23.314;2024-02-15T14:42:48;10.67;;;6.50;;
24277;SDS011;12394;42.692;23.314;2024-02-15T14:45:14;9.17;;;6.23;;
24277;SDS011;12394;42.692;23.314;2024-02-15T14:47:40;11.43;;;7.47;;
24277;SDS011;12394;42.692;23.314;2024-02-15T14:50:07;13.40;;;7.47;;
24277;SDS011;12394;42.692;23.314;2024-02-15T14:52:38;10.83;;;6.80;;
24277;SDS011;12394;42.692;23.314;2024-02-15T14:55:04;7.93;;;6.40;;